sensor_id;sensor_type;location;lat;lon;timestamp;P1;durP1;ratioP1;P2;durP2;ratioP2
2522;SDS011;1272;53.332;9.860;2023-01-24T00:02:25;28.10;;;15.53;;
2522;SDS011;1272;53.332;9.860;2023-01-24T00:04:50;27.23;;;17.43;;
2522;SDS011;1272;53.332;9.860;2023-01-24T00:07:16;26.20;;;16.50;;
2522;SDS011;1272;53.332;9.860;2023-01-24T00:09:42;27.57;;;16.80;;
2522;SDS011;1272;53.332;9.860;2023-01-24T00:12:08;25.30;;;15.70;;
2522;SDS011;1272;53.332;9.860;2023-01-24T00:14:33;25.43;;;15.90;;
2522;SDS011;1272;53.332;9.860;2023-01-24T00:16:59;25.83;;;16.47;;
2522;SDS011;1272;53.332;9.860;2023-01-24T00:19:25;32.67;;;17.60;;
2522;SDS011;1272;53.332;9.860;2023-01-24T00:21:50;21.67;;;15.40;;
2522;SDS011;1272;53.332;9.860;2023-01-24T00:24:16;28.47;;;16.33;;
2522;SDS011;1272;53.332;9.860;2023-01-24T00:26:41;22.00;;;15.20;;
2522;SDS011;1272;53.332;9.860;2023-01-24T00:29:07;29.17;;;17.30;;
2522;SDS011;1272;53.332;9.860;2023-01-24T00:31:33;30.50;;;17.80;;
2522;SDS011;1272;53.332;9.860;2023-01-24T00:33:58;34.97;;;17.47;;
2522;SDS011;1272;53.332;9.860;2023-01-24T00:36:25;30.23;;;16.80;;
2522;SDS011;1272;53.332;9.860;2023-01-24T00:38:52;32.20;;;18.50;;
2522;SDS011;1272;53.332;9.860;2023-01-24T00:41:22;30.33;;;17.80;;
2522;SDS011;1272;53.332;9.860;2023-01-24T00:43:47;33.73;;;18.00;;
2522;SDS011;1272;53.332;9.860;2023-01-24T00:46:13;32.37;;;17.90;;
2522;SDS011;1272;53.332;9.860;2023-01-24T00:48:39;26.73;;;16.10;;
2522;SDS011;1272;53.332;9.860;2023-01-24T00:51:04;26.57;;;16.43;;
2522;SDS011;1272;53.332;9.860;2023-01-24T00:53:30;28.63;;;15.10;;
2522;SDS011;1272;53.332;9.860;2023-01-24T00:55:56;35.43;;;18.43;;
2522;SDS011;1272;53.332;9.860;2023-01-24T00:58:22;27.77;;;17.53;;
2522;SDS011;1272;53.332;9.860;2023-01-24T01:00:48;28.00;;;17.13;;
2522;SDS011;1272;53.332;9.860;2023-01-24T01:03:15;25.20;;;16.13;;
2522;SDS011;1272;53.332;9.860;2023-01-24T01:05:42;27.07;;;15.43;;
2522;SDS011;1272;53.332;9.860;2023-01-24T01:08:08;23.43;;;15.50;;
2522;SDS011;1272;53.332;9.860;2023-01-24T01:10:35;30.57;;;17.03;;
2522;SDS011;1272;53.332;9.860;2023-01-24T01:13:01;28.47;;;16.70;;
2522;SDS011;1272;53.332;9.860;2023-01-24T01:15:27;24.17;;;17.20;;
2522;SDS011;1272;53.332;9.860;2023-01-24T01:17:54;29.20;;;15.40;;
2522;SDS011;1272;53.332;9.860;2023-01-24T01:20:19;32.40;;;17.13;;
2522;SDS011;1272;53.332;9.860;2023-01-24T01:22:45;34.80;;;18.00;;
2522;SDS011;1272;53.332;9.860;2023-01-24T01:25:11;29.77;;;16.40;;
2522;SDS011;1272;53.332;9.860;2023-01-24T01:27:36;28.93;;;17.97;;
2522;SDS011;1272;53.332;9.860;2023-01-24T01:30:02;31.97;;;17.50;;
2522;SDS011;1272;53.332;9.860;2023-01-24T01:32:28;27.37;;;17.10;;
2522;SDS011;1272;53.332;9.860;2023-01-24T01:34:54;24.60;;;16.47;;
2522;SDS011;1272;53.332;9.860;2023-01-24T01:37:20;29.77;;;17.40;;
2522;SDS011;1272;53.332;9.860;2023-01-24T01:39:45;23.90;;;16.10;;
2522;SDS011;1272;53.332;9.860;2023-01-24T01:42:11;22.77;;;15.87;;
2522;SDS011;1272;53.332;9.860;2023-01-24T01:44:39;23.90;;;15.10;;
2522;SDS011;1272;53.332;9.860;2023-01-24T01:47:25;28.87;;;15.30;;
2522;SDS011;1272;53.332;9.860;2023-01-24T01:49:57;26.20;;;16.60;;
2522;SDS011;1272;53.332;9.860;2023-01-24T01:52:43;25.03;;;16.53;;
2522;SDS011;1272;53.332;9.860;2023-01-24T01:55:19;26.40;;;17.10;;
2522;SDS011;1272;53.332;9.860;2023-01-24T01:57:48;23.20;;;15.30;;
2522;SDS011;1272;53.332;9.860;2023-01-24T02:00:20;30.20;;;16.47;;
2522;SDS011;1272;53.332;9.860;2023-01-24T02:02:52;29.93;;;16.47;;
2522;SDS011;1272;53.332;9.860;2023-01-24T02:05:45;26.77;;;14.57;;
2522;SDS011;1272;53.332;9.860;2023-01-24T02:08:12;22.87;;;14.23;;
2522;SDS011;1272;53.332;9.860;2023-01-24T02:10:44;22.07;;;15.00;;
2522;SDS011;1272;53.332;9.860;2023-01-24T02:13:29;22.93;;;14.63;;
2522;SDS011;1272;53.332;9.860;2023-01-24T02:15:57;23.63;;;14.20;;
2522;SDS011;1272;53.332;9.860;2023-01-24T02:18:38;20.23;;;13.40;;
2522;SDS011;1272;53.332;9.860;2023-01-24T02:21:06;20.87;;;13.57;;
2522;SDS011;1272;53.332;9.860;2023-01-24T02:26:20;22.77;;;14.80;;
2522;SDS011;1272;53.332;9.860;2023-01-24T02:28:55;22.13;;;14.83;;
2522;SDS011;1272;53.332;9.860;2023-01-24T02:31:50;24.63;;;14.50;;
2522;SDS011;1272;53.332;9.860;2023-01-24T02:34:19;24.53;;;14.47;;
2522;SDS011;1272;53.332;9.860;2023-01-24T02:36:45;21.90;;;14.53;;
2522;SDS011;1272;53.332;9.860;2023-01-24T02:39:17;19.30;;;13.00;;
2522;SDS011;1272;53.332;9.860;2023-01-24T02:41:50;22.03;;;13.20;;
2522;SDS011;1272;53.332;9.860;2023-01-24T02:44:29;16.63;;;12.00;;
2522;SDS011;1272;53.332;9.860;2023-01-24T02:47:01;21.20;;;13.40;;
2522;SDS011;1272;53.332;9.860;2023-01-24T02:49:27;18.27;;;11.50;;
2522;SDS011;1272;53.332;9.860;2023-01-24T02:51:53;12.77;;;9.37;;
2522;SDS011;1272;53.332;9.860;2023-01-24T02:54:38;14.90;;;10.50;;
2522;SDS011;1272;53.332;9.860;2023-01-24T02:57:04;15.60;;;11.07;;
2522;SDS011;1272;53.332;9.860;2023-01-24T02:59:49;24.37;;;12.17;;
2522;SDS011;1272;53.332;9.860;2023-01-24T03:02:15;17.73;;;11.20;;
2522;SDS011;1272;53.332;9.860;2023-01-24T03:04:40;17.37;;;11.57;;
2522;SDS011;1272;53.332;9.860;2023-01-24T03:07:06;17.97;;;12.17;;
2522;SDS011;1272;53.332;9.860;2023-01-24T03:09:32;19.30;;;13.00;;
2522;SDS011;1272;53.332;9.860;2023-01-24T03:12:01;15.53;;;11.60;;
2522;SDS011;1272;53.332;9.860;2023-01-24T03:14:47;14.40;;;11.10;;
2522;SDS011;1272;53.332;9.860;2023-01-24T03:17:31;19.00;;;12.13;;
2522;SDS011;1272;53.332;9.860;2023-01-24T03:20:16;18.67;;;11.60;;
2522;SDS011;1272;53.332;9.860;2023-01-24T03:23:01;16.23;;;10.53;;
2522;SDS011;1272;53.332;9.860;2023-01-24T03:25:45;19.13;;;13.10;;
2522;SDS011;1272;53.332;9.860;2023-01-24T03:28:29;17.77;;;11.80;;
2522;SDS011;1272;53.332;9.860;2023-01-24T03:31:14;20.73;;;12.20;;
2522;SDS011;1272;53.332;9.860;2023-01-24T03:33:58;13.37;;;9.17;;
2522;SDS011;1272;53.332;9.860;2023-01-24T03:36:42;10.00;;;8.33;;
2522;SDS011;1272;53.332;9.860;2023-01-24T03:39:09;11.80;;;7.30;;
2522;SDS011;1272;53.332;9.860;2023-01-24T03:41:54;9.00;;;7.40;;
2522;SDS011;1272;53.332;9.860;2023-01-24T03:44:20;7.67;;;6.30;;
2522;SDS011;1272;53.332;9.860;2023-01-24T03:46:45;8.70;;;7.60;;
2522;SDS011;1272;53.332;9.860;2023-01-24T03:49:12;9.00;;;7.73;;
2522;SDS011;1272;53.332;9.860;2023-01-24T03:51:38;9.77;;;8.37;;
2522;SDS011;1272;53.332;9.860;2023-01-24T03:54:22;11.13;;;7.47;;
2522;SDS011;1272;53.332;9.860;2023-01-24T03:56:48;9.90;;;7.57;;
2522;SDS011;1272;53.332;9.860;2023-01-24T03:59:13;13.60;;;8.20;;
2522;SDS011;1272;53.332;9.860;2023-01-24T04:01:39;13.60;;;9.90;;
2522;SDS011;1272;53.332;9.860;2023-01-24T04:04:05;12.23;;;8.47;;
2522;SDS011;1272;53.332;9.860;2023-01-24T04:06:31;12.37;;;8.73;;
2522;SDS011;1272;53.332;9.860;2023-01-24T04:08:56;12.70;;;9.40;;
2522;SDS011;1272;53.332;9.860;2023-01-24T04:11:22;12.10;;;8.73;;
2522;SDS011;1272;53.332;9.860;2023-01-24T04:13:50;12.77;;;9.10;;
2522;SDS011;1272;53.332;9.860;2023-01-24T04:16:25;12.97;;;8.30;;
2522;SDS011;1272;53.332;9.860;2023-01-24T04:18:50;9.97;;;7.63;;
2522;SDS011;1272;53.332;9.860;2023-01-24T04:21:16;11.37;;;8.43;;
2522;SDS011;1272;53.332;9.860;2023-01-24T04:23:42;12.13;;;8.47;;
2522;SDS011;1272;53.332;9.860;2023-01-24T04:26:07;12.30;;;8.83;;
2522;SDS011;1272;53.332;9.860;2023-01-24T04:28:33;13.20;;;9.03;;
2522;SDS011;1272;53.332;9.860;2023-01-24T04:31:00;13.23;;;9.10;;
2522;SDS011;1272;53.332;9.860;2023-01-24T04:33:26;12.67;;;9.33;;
2522;SDS011;1272;53.332;9.860;2023-01-24T04:35:59;9.40;;;8.00;;
2522;SDS011;1272;53.332;9.860;2023-01-24T04:38:25;13.90;;;7.90;;
2522;SDS011;1272;53.332;9.860;2023-01-24T04:41:00;14.03;;;8.40;;
2522;SDS011;1272;53.332;9.860;2023-01-24T04:43:27;12.00;;;8.70;;
2522;SDS011;1272;53.332;9.860;2023-01-24T04:45:56;14.37;;;9.60;;
2522;SDS011;1272;53.332;9.860;2023-01-24T04:48:24;12.50;;;8.63;;
2522;SDS011;1272;53.332;9.860;2023-01-24T04:50:50;11.90;;;8.20;;
2522;SDS011;1272;53.332;9.860;2023-01-24T04:53:16;11.23;;;8.33;;
2522;SDS011;1272;53.332;9.860;2023-01-24T04:55:41;12.90;;;8.73;;
2522;SDS011;1272;53.332;9.860;2023-01-24T04:58:07;11.97;;;8.43;;
2522;SDS011;1272;53.332;9.860;2023-01-24T05:00:33;10.60;;;8.50;;
2522;SDS011;1272;53.332;9.860;2023-01-24T05:02:58;11.60;;;8.73;;
2522;SDS011;1272;53.332;9.860;2023-01-24T05:05:24;10.30;;;8.40;;
2522;SDS011;1272;53.332;9.860;2023-01-24T05:07:50;15.03;;;9.17;;
2522;SDS011;1272;53.332;9.860;2023-01-24T05:10:15;14.63;;;9.83;;
2522;SDS011;1272;53.332;9.860;2023-01-24T05:12:41;16.53;;;9.50;;
2522;SDS011;1272;53.332;9.860;2023-01-24T05:15:07;13.17;;;9.90;;
2522;SDS011;1272;53.332;9.860;2023-01-24T05:17:33;12.40;;;9.80;;
2522;SDS011;1272;53.332;9.860;2023-01-24T05:19:58;12.03;;;9.07;;
2522;SDS011;1272;53.332;9.860;2023-01-24T05:22:24;13.67;;;9.67;;
2522;SDS011;1272;53.332;9.860;2023-01-24T05:24:50;10.03;;;7.87;;
2522;SDS011;1272;53.332;9.860;2023-01-24T05:27:15;6.93;;;6.23;;
2522;SDS011;1272;53.332;9.860;2023-01-24T05:29:41;8.50;;;7.20;;
2522;SDS011;1272;53.332;9.860;2023-01-24T05:32:06;9.20;;;8.07;;
2522;SDS011;1272;53.332;9.860;2023-01-24T05:34:32;9.83;;;7.30;;
2522;SDS011;1272;53.332;9.860;2023-01-24T05:36:58;10.63;;;7.47;;
2522;SDS011;1272;53.332;9.860;2023-01-24T05:39:23;12.13;;;8.57;;
2522;SDS011;1272;53.332;9.860;2023-01-24T05:41:49;10.27;;;8.17;;
2522;SDS011;1272;53.332;9.860;2023-01-24T05:44:15;8.77;;;7.80;;
2522;SDS011;1272;53.332;9.860;2023-01-24T05:46:40;12.80;;;8.33;;
2522;SDS011;1272;53.332;9.860;2023-01-24T05:49:07;9.40;;;7.70;;
2522;SDS011;1272;53.332;9.860;2023-01-24T05:51:32;14.37;;;9.80;;
2522;SDS011;1272;53.332;9.860;2023-01-24T05:53:58;12.77;;;8.93;;
2522;SDS011;1272;53.332;9.860;2023-01-24T05:56:24;12.50;;;9.57;;
2522;SDS011;1272;53.332;9.860;2023-01-24T05:58:49;14.00;;;9.20;;
2522;SDS011;1272;53.332;9.860;2023-01-24T06:01:16;11.10;;;7.97;;
2522;SDS011;1272;53.332;9.860;2023-01-24T06:03:45;11.07;;;8.70;;
2522;SDS011;1272;53.332;9.860;2023-01-24T06:06:18;11.67;;;8.23;;
2522;SDS011;1272;53.332;9.860;2023-01-24T06:08:45;11.07;;;9.03;;
2522;SDS011;1272;53.332;9.860;2023-01-24T06:11:18;12.87;;;8.73;;
2522;SDS011;1272;53.332;9.860;2023-01-24T06:13:46;11.90;;;7.40;;
2522;SDS011;1272;53.332;9.860;2023-01-24T06:16:21;10.70;;;8.07;;
2522;SDS011;1272;53.332;9.860;2023-01-24T06:18:48;8.80;;;7.90;;
2522;SDS011;1272;53.332;9.860;2023-01-24T06:23:43;9.13;;;7.57;;
2522;SDS011;1272;53.332;9.860;2023-01-24T06:26:09;8.87;;;7.37;;
2522;SDS011;1272;53.332;9.860;2023-01-24T06:28:36;15.40;;;8.73;;
2522;SDS011;1272;53.332;9.860;2023-01-24T06:31:04;8.40;;;7.40;;
2522;SDS011;1272;53.332;9.860;2023-01-24T06:33:43;8.37;;;6.93;;
2522;SDS011;1272;53.332;9.860;2023-01-24T06:36:33;12.07;;;7.57;;
2522;SDS011;1272;53.332;9.860;2023-01-24T06:39:02;10.43;;;7.10;;
2522;SDS011;1272;53.332;9.860;2023-01-24T06:41:28;10.43;;;8.17;;
2522;SDS011;1272;53.332;9.860;2023-01-24T06:43:57;12.10;;;8.73;;
2522;SDS011;1272;53.332;9.860;2023-01-24T06:46:23;10.77;;;7.90;;
2522;SDS011;1272;53.332;9.860;2023-01-24T06:48:48;13.43;;;9.07;;
2522;SDS011;1272;53.332;9.860;2023-01-24T06:51:14;11.00;;;8.00;;
2522;SDS011;1272;53.332;9.860;2023-01-24T06:53:40;10.17;;;7.90;;
2522;SDS011;1272;53.332;9.860;2023-01-24T06:56:06;9.60;;;8.23;;
2522;SDS011;1272;53.332;9.860;2023-01-24T06:58:33;9.30;;;8.30;;
2522;SDS011;1272;53.332;9.860;2023-01-24T07:00:59;8.47;;;6.77;;
2522;SDS011;1272;53.332;9.860;2023-01-24T07:03:25;11.00;;;7.97;;
2522;SDS011;1272;53.332;9.860;2023-01-24T07:05:50;8.37;;;7.33;;
2522;SDS011;1272;53.332;9.860;2023-01-24T07:08:16;8.03;;;6.80;;
2522;SDS011;1272;53.332;9.860;2023-01-24T07:10:44;7.73;;;6.77;;
2522;SDS011;1272;53.332;9.860;2023-01-24T07:13:10;11.00;;;7.53;;
2522;SDS011;1272;53.332;9.860;2023-01-24T07:15:36;10.00;;;7.87;;
2522;SDS011;1272;53.332;9.860;2023-01-24T07:18:05;10.97;;;8.50;;
2522;SDS011;1272;53.332;9.860;2023-01-24T07:20:32;8.63;;;7.73;;
2522;SDS011;1272;53.332;9.860;2023-01-24T07:22:58;10.17;;;7.40;;
2522;SDS011;1272;53.332;9.860;2023-01-24T07:25:25;11.77;;;8.80;;
2522;SDS011;1272;53.332;9.860;2023-01-24T07:27:51;14.77;;;9.20;;
2522;SDS011;1272;53.332;9.860;2023-01-24T07:30:18;10.07;;;8.43;;
2522;SDS011;1272;53.332;9.860;2023-01-24T07:32:43;10.20;;;8.30;;
2522;SDS011;1272;53.332;9.860;2023-01-24T07:35:09;8.70;;;7.67;;
2522;SDS011;1272;53.332;9.860;2023-01-24T07:37:36;10.20;;;8.47;;
2522;SDS011;1272;53.332;9.860;2023-01-24T07:40:02;10.53;;;7.77;;
2522;SDS011;1272;53.332;9.860;2023-01-24T07:42:28;9.80;;;8.10;;
2522;SDS011;1272;53.332;9.860;2023-01-24T07:44:54;10.13;;;8.00;;
2522;SDS011;1272;53.332;9.860;2023-01-24T07:47:21;9.27;;;7.60;;
2522;SDS011;1272;53.332;9.860;2023-01-24T07:49:48;8.93;;;6.60;;
2522;SDS011;1272;53.332;9.860;2023-01-24T07:52:13;15.37;;;10.33;;
2522;SDS011;1272;53.332;9.860;2023-01-24T07:54:39;9.40;;;6.67;;
2522;SDS011;1272;53.332;9.860;2023-01-24T07:57:05;8.43;;;7.27;;
2522;SDS011;1272;53.332;9.860;2023-01-24T07:59:32;7.10;;;6.40;;
2522;SDS011;1272;53.332;9.860;2023-01-24T08:01:58;8.83;;;6.30;;
2522;SDS011;1272;53.332;9.860;2023-01-24T08:04:24;10.13;;;7.97;;
2522;SDS011;1272;53.332;9.860;2023-01-24T08:06:49;9.63;;;6.73;;
2522;SDS011;1272;53.332;9.860;2023-01-24T08:09:45;11.23;;;7.93;;
2522;SDS011;1272;53.332;9.860;2023-01-24T08:12:12;8.33;;;7.37;;
2522;SDS011;1272;53.332;9.860;2023-01-24T08:14:38;10.77;;;8.00;;
2522;SDS011;1272;53.332;9.860;2023-01-24T08:17:04;9.77;;;7.30;;
2522;SDS011;1272;53.332;9.860;2023-01-24T08:19:30;8.63;;;7.70;;
2522;SDS011;1272;53.332;9.860;2023-01-24T08:21:56;23.77;;;9.10;;
2522;SDS011;1272;53.332;9.860;2023-01-24T08:24:22;16.27;;;8.37;;
2522;SDS011;1272;53.332;9.860;2023-01-24T08:26:48;11.00;;;7.57;;
2522;SDS011;1272;53.332;9.860;2023-01-24T08:29:16;9.40;;;7.90;;
2522;SDS011;1272;53.332;9.860;2023-01-24T08:31:41;9.67;;;7.90;;
2522;SDS011;1272;53.332;9.860;2023-01-24T08:34:08;11.60;;;8.07;;
2522;SDS011;1272;53.332;9.860;2023-01-24T08:36:34;14.50;;;9.10;;
2522;SDS011;1272;53.332;9.860;2023-01-24T08:39:00;9.97;;;8.07;;
2522;SDS011;1272;53.332;9.860;2023-01-24T08:41:27;11.80;;;8.43;;
2522;SDS011;1272;53.332;9.860;2023-01-24T08:43:53;11.80;;;8.30;;
2522;SDS011;1272;53.332;9.860;2023-01-24T08:46:19;9.07;;;7.00;;
2522;SDS011;1272;53.332;9.860;2023-01-24T08:48:45;9.40;;;8.13;;
2522;SDS011;1272;53.332;9.860;2023-01-24T08:51:10;10.00;;;7.67;;
2522;SDS011;1272;53.332;9.860;2023-01-24T08:53:36;12.27;;;7.93;;
2522;SDS011;1272;53.332;9.860;2023-01-24T08:56:02;7.93;;;7.00;;
2522;SDS011;1272;53.332;9.860;2023-01-24T08:58:28;9.20;;;8.10;;
2522;SDS011;1272;53.332;9.860;2023-01-24T09:00:54;12.13;;;8.37;;
2522;SDS011;1272;53.332;9.860;2023-01-24T09:03:19;13.53;;;7.60;;
2522;SDS011;1272;53.332;9.860;2023-01-24T09:05:45;13.43;;;8.57;;
2522;SDS011;1272;53.332;9.860;2023-01-24T09:08:11;8.33;;;7.37;;
2522;SDS011;1272;53.332;9.860;2023-01-24T09:10:37;12.10;;;8.27;;
2522;SDS011;1272;53.332;9.860;2023-01-24T09:13:09;10.70;;;7.60;;
2522;SDS011;1272;53.332;9.860;2023-01-24T09:15:34;9.80;;;7.13;;
2522;SDS011;1272;53.332;9.860;2023-01-24T09:18:00;11.83;;;8.33;;
2522;SDS011;1272;53.332;9.860;2023-01-24T09:20:27;11.70;;;7.67;;
2522;SDS011;1272;53.332;9.860;2023-01-24T09:22:53;11.33;;;8.20;;
2522;SDS011;1272;53.332;9.860;2023-01-24T09:25:19;10.40;;;7.63;;
2522;SDS011;1272;53.332;9.860;2023-01-24T09:27:49;11.40;;;8.37;;
2522;SDS011;1272;53.332;9.860;2023-01-24T09:30:20;10.00;;;8.10;;
2522;SDS011;1272;53.332;9.860;2023-01-24T09:32:47;12.30;;;8.40;;
2522;SDS011;1272;53.332;9.860;2023-01-24T09:35:13;11.20;;;8.40;;
2522;SDS011;1272;53.332;9.860;2023-01-24T09:37:39;11.00;;;7.87;;
2522;SDS011;1272;53.332;9.860;2023-01-24T09:42:52;11.10;;;8.47;;
2522;SDS011;1272;53.332;9.860;2023-01-24T09:48:29;15.57;;;9.17;;
2522;SDS011;1272;53.332;9.860;2023-01-24T09:51:01;11.97;;;8.90;;
2522;SDS011;1272;53.332;9.860;2023-01-24T09:53:43;25.73;;;11.60;;
2522;SDS011;1272;53.332;9.860;2023-01-24T09:56:19;32.30;;;12.40;;
2522;SDS011;1272;53.332;9.860;2023-01-24T09:59:42;15.50;;;8.97;;
2522;SDS011;1272;53.332;9.860;2023-01-24T10:01:41;11.20;;;8.23;;
2522;SDS011;1272;53.332;9.860;2023-01-24T10:04:17;16.13;;;9.73;;
2522;SDS011;1272;53.332;9.860;2023-01-24T10:06:51;14.40;;;9.70;;
2522;SDS011;1272;53.332;9.860;2023-01-24T10:12:30;14.50;;;9.87;;
2522;SDS011;1272;53.332;9.860;2023-01-24T10:18:15;12.03;;;9.20;;
2522;SDS011;1272;53.332;9.860;2023-01-24T10:23:36;12.57;;;8.50;;
2522;SDS011;1272;53.332;9.860;2023-01-24T10:26:19;10.63;;;8.90;;
2522;SDS011;1272;53.332;9.860;2023-01-24T10:28:51;14.60;;;8.87;;
2522;SDS011;1272;53.332;9.860;2023-01-24T10:31:23;10.80;;;8.60;;
2522;SDS011;1272;53.332;9.860;2023-01-24T10:34:06;10.50;;;7.60;;
2522;SDS011;1272;53.332;9.860;2023-01-24T10:37:06;11.00;;;7.40;;
2522;SDS011;1272;53.332;9.860;2023-01-24T10:39:37;15.47;;;9.97;;
2522;SDS011;1272;53.332;9.860;2023-01-24T10:44:51;18.00;;;9.37;;
2522;SDS011;1272;53.332;9.860;2023-01-24T10:50:17;13.43;;;8.77;;
2522;SDS011;1272;53.332;9.860;2023-01-24T10:52:44;15.63;;;10.23;;
2522;SDS011;1272;53.332;9.860;2023-01-24T11:00:59;13.80;;;8.07;;
2522;SDS011;1272;53.332;9.860;2023-01-24T11:03:31;9.70;;;8.33;;
2522;SDS011;1272;53.332;9.860;2023-01-24T11:06:00;15.60;;;9.87;;
2522;SDS011;1272;53.332;9.860;2023-01-24T11:08:36;11.07;;;8.70;;
2522;SDS011;1272;53.332;9.860;2023-01-24T11:11:03;12.00;;;8.97;;
2522;SDS011;1272;53.332;9.860;2023-01-24T11:13:47;13.50;;;9.17;;
2522;SDS011;1272;53.332;9.860;2023-01-24T11:18:46;15.17;;;9.57;;
2522;SDS011;1272;53.332;9.860;2023-01-24T11:21:14;13.60;;;9.37;;
2522;SDS011;1272;53.332;9.860;2023-01-24T11:23:42;12.33;;;8.70;;
2522;SDS011;1272;53.332;9.860;2023-01-24T11:29:04;12.03;;;8.37;;
2522;SDS011;1272;53.332;9.860;2023-01-24T11:31:42;11.20;;;9.13;;
2522;SDS011;1272;53.332;9.860;2023-01-24T11:48:15;9.67;;;8.07;;
2522;SDS011;1272;53.332;9.860;2023-01-24T11:50:59;11.07;;;8.10;;
2522;SDS011;1272;53.332;9.860;2023-01-24T12:09:41;9.20;;;7.73;;
2522;SDS011;1272;53.332;9.860;2023-01-24T12:17:48;10.80;;;7.80;;
2522;SDS011;1272;53.332;9.860;2023-01-24T12:22:55;9.87;;;8.60;;
2522;SDS011;1272;53.332;9.860;2023-01-24T12:25:24;11.47;;;7.97;;
2522;SDS011;1272;53.332;9.860;2023-01-24T12:27:58;11.20;;;7.50;;
2522;SDS011;1272;53.332;9.860;2023-01-24T12:30:34;11.27;;;7.83;;
2522;SDS011;1272;53.332;9.860;2023-01-24T12:33:30;10.33;;;8.47;;
2522;SDS011;1272;53.332;9.860;2023-01-24T12:36:05;11.00;;;7.70;;
2522;SDS011;1272;53.332;9.860;2023-01-24T12:38:48;10.40;;;7.97;;
2522;SDS011;1272;53.332;9.860;2023-01-24T12:41:32;10.83;;;8.23;;
2522;SDS011;1272;53.332;9.860;2023-01-24T12:44:02;11.23;;;8.10;;
2522;SDS011;1272;53.332;9.860;2023-01-24T12:46:58;12.33;;;8.90;;
2522;SDS011;1272;53.332;9.860;2023-01-24T12:52:52;11.43;;;9.50;;
2522;SDS011;1272;53.332;9.860;2023-01-24T12:56:11;13.50;;;9.20;;
2522;SDS011;1272;53.332;9.860;2023-01-24T13:11:44;12.87;;;9.67;;
2522;SDS011;1272;53.332;9.860;2023-01-24T13:16:56;11.10;;;9.00;;
2522;SDS011;1272;53.332;9.860;2023-01-24T13:19:36;9.73;;;8.70;;
2522;SDS011;1272;53.332;9.860;2023-01-24T13:30:05;12.47;;;8.40;;
2522;SDS011;1272;53.332;9.860;2023-01-24T13:32:59;12.73;;;9.10;;
2522;SDS011;1272;53.332;9.860;2023-01-24T13:35:27;11.03;;;8.90;;
2522;SDS011;1272;53.332;9.860;2023-01-24T13:42:51;12.50;;;9.50;;
2522;SDS011;1272;53.332;9.860;2023-01-24T13:47:59;12.33;;;10.53;;
2522;SDS011;1272;53.332;9.860;2023-01-24T13:50:28;15.27;;;9.70;;
2522;SDS011;1272;53.332;9.860;2023-01-24T13:52:56;13.60;;;10.50;;
2522;SDS011;1272;53.332;9.860;2023-01-24T14:00:33;12.97;;;10.10;;
2522;SDS011;1272;53.332;9.860;2023-01-24T14:08:32;12.43;;;9.90;;
2522;SDS011;1272;53.332;9.860;2023-01-24T14:11:17;13.43;;;9.40;;
2522;SDS011;1272;53.332;9.860;2023-01-24T14:24:42;15.87;;;10.00;;
2522;SDS011;1272;53.332;9.860;2023-01-24T14:27:23;18.03;;;11.10;;
2522;SDS011;1272;53.332;9.860;2023-01-24T14:32:38;11.57;;;9.10;;
2522;SDS011;1272;53.332;9.860;2023-01-24T14:37:47;16.63;;;11.47;;
2522;SDS011;1272;53.332;9.860;2023-01-24T14:40:21;14.33;;;10.50;;
2522;SDS011;1272;53.332;9.860;2023-01-24T14:42:59;16.27;;;11.40;;
2522;SDS011;1272;53.332;9.860;2023-01-24T14:45:29;12.87;;;9.93;;
2522;SDS011;1272;53.332;9.860;2023-01-24T14:47:56;20.93;;;9.83;;
2522;SDS011;1272;53.332;9.860;2023-01-24T14:50:28;13.47;;;10.13;;
2522;SDS011;1272;53.332;9.860;2023-01-24T14:53:02;13.83;;;9.50;;
2522;SDS011;1272;53.332;9.860;2023-01-24T14:55:48;13.73;;;9.40;;
2522;SDS011;1272;53.332;9.860;2023-01-24T14:58:21;11.23;;;9.43;;
2522;SDS011;1272;53.332;9.860;2023-01-24T15:00:49;12.90;;;10.20;;
2522;SDS011;1272;53.332;9.860;2023-01-24T15:11:07;12.47;;;10.10;;
2522;SDS011;1272;53.332;9.860;2023-01-24T15:16:17;14.27;;;10.60;;
2522;SDS011;1272;53.332;9.860;2023-01-24T15:18:46;11.10;;;9.33;;
2522;SDS011;1272;53.332;9.860;2023-01-24T15:24:05;14.87;;;10.93;;
2522;SDS011;1272;53.332;9.860;2023-01-24T15:26:47;12.67;;;11.27;;
2522;SDS011;1272;53.332;9.860;2023-01-24T15:32:20;19.30;;;12.10;;
2522;SDS011;1272;53.332;9.860;2023-01-24T15:34:51;32.00;;;19.50;;
2522;SDS011;1272;53.332;9.860;2023-01-24T15:37:16;27.60;;;18.30;;
2522;SDS011;1272;53.332;9.860;2023-01-24T15:39:42;20.07;;;12.73;;
2522;SDS011;1272;53.332;9.860;2023-01-24T15:42:15;20.00;;;11.50;;
2522;SDS011;1272;53.332;9.860;2023-01-24T15:45:01;17.63;;;11.43;;
2522;SDS011;1272;53.332;9.860;2023-01-24T15:47:28;42.00;;;13.33;;
2522;SDS011;1272;53.332;9.860;2023-01-24T15:50:21;18.73;;;11.37;;
2522;SDS011;1272;53.332;9.860;2023-01-24T15:53:26;14.03;;;10.50;;
2522;SDS011;1272;53.332;9.860;2023-01-24T15:55:53;18.87;;;11.50;;
2522;SDS011;1272;53.332;9.860;2023-01-24T15:58:22;14.77;;;12.13;;
2522;SDS011;1272;53.332;9.860;2023-01-24T16:00:52;16.70;;;11.47;;
2522;SDS011;1272;53.332;9.860;2023-01-24T16:03:19;14.40;;;10.73;;
2522;SDS011;1272;53.332;9.860;2023-01-24T16:05:45;17.10;;;11.63;;
2522;SDS011;1272;53.332;9.860;2023-01-24T16:08:14;16.30;;;10.87;;
2522;SDS011;1272;53.332;9.860;2023-01-24T16:10:40;13.73;;;11.00;;
2522;SDS011;1272;53.332;9.860;2023-01-24T16:13:11;14.13;;;10.93;;
2522;SDS011;1272;53.332;9.860;2023-01-24T16:16:06;14.60;;;10.43;;
2522;SDS011;1272;53.332;9.860;2023-01-24T16:18:35;18.03;;;11.73;;
2522;SDS011;1272;53.332;9.860;2023-01-24T16:21:01;13.97;;;10.63;;
2522;SDS011;1272;53.332;9.860;2023-01-24T16:23:27;14.80;;;11.20;;
2522;SDS011;1272;53.332;9.860;2023-01-24T16:25:53;16.20;;;11.80;;
2522;SDS011;1272;53.332;9.860;2023-01-24T16:28:23;11.43;;;9.90;;
2522;SDS011;1272;53.332;9.860;2023-01-24T16:30:50;15.07;;;11.70;;
2522;SDS011;1272;53.332;9.860;2023-01-24T16:33:17;11.10;;;9.63;;
2522;SDS011;1272;53.332;9.860;2023-01-24T16:35:45;13.57;;;11.43;;
2522;SDS011;1272;53.332;9.860;2023-01-24T16:38:13;15.93;;;11.77;;
2522;SDS011;1272;53.332;9.860;2023-01-24T16:40:39;13.93;;;9.87;;
2522;SDS011;1272;53.332;9.860;2023-01-24T16:43:06;21.20;;;10.87;;
2522;SDS011;1272;53.332;9.860;2023-01-24T16:45:38;13.93;;;10.93;;
2522;SDS011;1272;53.332;9.860;2023-01-24T16:48:03;15.03;;;10.80;;
2522;SDS011;1272;53.332;9.860;2023-01-24T16:50:29;12.20;;;10.60;;
2522;SDS011;1272;53.332;9.860;2023-01-24T16:52:57;17.30;;;10.80;;
2522;SDS011;1272;53.332;9.860;2023-01-24T16:55:22;15.27;;;11.97;;
2522;SDS011;1272;53.332;9.860;2023-01-24T16:57:48;15.47;;;9.77;;
2522;SDS011;1272;53.332;9.860;2023-01-24T17:00:14;16.03;;;11.63;;
2522;SDS011;1272;53.332;9.860;2023-01-24T17:02:43;18.53;;;12.13;;
2522;SDS011;1272;53.332;9.860;2023-01-24T17:05:09;12.53;;;10.40;;
2522;SDS011;1272;53.332;9.860;2023-01-24T17:07:36;13.73;;;10.50;;
2522;SDS011;1272;53.332;9.860;2023-01-24T17:10:03;13.50;;;10.37;;
2522;SDS011;1272;53.332;9.860;2023-01-24T17:12:31;15.03;;;10.70;;
2522;SDS011;1272;53.332;9.860;2023-01-24T17:14:57;15.83;;;12.97;;
2522;SDS011;1272;53.332;9.860;2023-01-24T17:17:23;13.73;;;10.20;;
2522;SDS011;1272;53.332;9.860;2023-01-24T17:19:50;16.93;;;12.20;;
2522;SDS011;1272;53.332;9.860;2023-01-24T17:22:16;13.20;;;9.70;;
2522;SDS011;1272;53.332;9.860;2023-01-24T17:24:42;12.77;;;10.47;;
2522;SDS011;1272;53.332;9.860;2023-01-24T17:27:09;14.73;;;11.80;;
2522;SDS011;1272;53.332;9.860;2023-01-24T17:29:34;15.67;;;11.43;;
2522;SDS011;1272;53.332;9.860;2023-01-24T17:32:00;20.20;;;12.87;;
2522;SDS011;1272;53.332;9.860;2023-01-24T17:34:26;18.00;;;12.00;;
2522;SDS011;1272;53.332;9.860;2023-01-24T17:36:51;17.20;;;10.83;;
2522;SDS011;1272;53.332;9.860;2023-01-24T17:39:17;14.23;;;10.43;;
2522;SDS011;1272;53.332;9.860;2023-01-24T17:41:43;17.90;;;11.73;;
2522;SDS011;1272;53.332;9.860;2023-01-24T17:44:09;14.90;;;10.80;;
2522;SDS011;1272;53.332;9.860;2023-01-24T17:46:36;14.80;;;10.83;;
2522;SDS011;1272;53.332;9.860;2023-01-24T17:49:03;16.17;;;9.87;;